ブエノスアイレス/エセイサ の空港の天気 - METARとTAF

エセイサ国際空港 ( SAEZ / EZE ) - アルゼンチン ブエノスアイレス州、Ezeiza
飛行場実況気象(Metar)
観測時間11/27 05:00 ART (11/27 08:00 UTC)
風向・風速東北東 4m/s
視程10km以上
天気現象
なし
気温23℃
湿度78%
気圧1018hPa
METARSAEZ 270800Z 07007KT CAVOK 23/19 Q1018 NOSIG RMK PP000
過去の天気等 Google飛行場航空写真 Wunderground天気予報

過去48時間のMETAR

飛行場予報(TAF)
発表時間: 11/27 02:00 ART (11/27 05:00 UTC)
予報対象時間: 27日3時 ART ~ 28日3時 ART
風向・風速北東 3m/s
視程10km以上
なし
27日18時 ART ~ 27日20時 ART に徐々に
風向・風速東 8m/s
27日22時 ART ~ 27日24時 ART に徐々に
風向・風速東 3m/s
TAF SAEZ 270500Z 2706/2806 05005KT CAVOK TX34/2718Z TN20/2709Z
BECMG 2721/2723 09015KT
BECMG 2801/2803 09005KT